createdAt,value
2023-03-26T00:00:00.154Z,-80
2023-03-26T00:01:07.289Z,-81
2023-03-26T00:02:10.197Z,-79
2023-03-26T00:03:14.088Z,-80
2023-03-26T00:04:29.099Z,-80
2023-03-26T00:05:33.453Z,-80
2023-03-26T00:06:40.276Z,-79
2023-03-26T00:07:43.717Z,-80
2023-03-26T00:08:54.066Z,-80
2023-03-26T00:09:58.452Z,-80
2023-03-26T00:11:01.321Z,-80
2023-03-26T00:12:04.230Z,-80
2023-03-26T00:13:08.064Z,-79
2023-03-26T00:14:21.103Z,-80
2023-03-26T00:15:23.944Z,-80
2023-03-26T00:16:32.405Z,-80
2023-03-26T00:17:35.839Z,-79
2023-03-26T00:18:39.009Z,-80
2023-03-26T00:19:48.113Z,-81
2023-03-26T00:20:50.933Z,-80
2023-03-26T00:21:54.474Z,-80
2023-03-26T00:22:57.780Z,-80
2023-03-26T00:24:05.632Z,-80
2023-03-26T00:25:15.168Z,-80
2023-03-26T00:26:18.744Z,-80
2023-03-26T00:27:21.550Z,-81
2023-03-26T00:28:25.915Z,-80
2023-03-26T00:29:29.262Z,-81
2023-03-26T00:30:38.203Z,-81
2023-03-26T00:31:42.217Z,-81
2023-03-26T00:32:45.548Z,-81
2023-03-26T00:33:56.907Z,-81
2023-03-26T00:34:59.765Z,-81
2023-03-26T00:36:09.363Z,-81
2023-03-26T00:37:13.829Z,-81
2023-03-26T00:38:16.860Z,-81
2023-03-26T00:39:19.649Z,-82
2023-03-26T00:40:24.713Z,-81
2023-03-26T00:41:34.396Z,-81
2023-03-26T00:42:37.642Z,-81
2023-03-26T00:43:40.494Z,-81
2023-03-26T00:45:05.431Z,-81
2023-03-26T00:46:15.474Z,-80
2023-03-26T00:47:18.707Z,-81
2023-03-26T00:48:34.308Z,-81
2023-03-26T00:49:41.018Z,-81
2023-03-26T00:50:45.984Z,-80
2023-03-26T00:51:55.402Z,-81
2023-03-26T00:52:58.339Z,-80
2023-03-26T00:54:01.266Z,-80
2023-03-26T00:55:04.359Z,-80
2023-03-26T00:56:08.304Z,-80
2023-03-26T00:57:28.955Z,-81
2023-03-26T00:58:38.352Z,-81
2023-03-26T00:59:42.522Z,-81
2023-03-26T01:00:52.924Z,-81
2023-03-26T01:02:03.499Z,-81
2023-03-26T01:03:08.090Z,-81
2023-03-26T01:04:25.417Z,-81
2023-03-26T01:05:37.153Z,-81
2023-03-26T01:06:43.244Z,-82
2023-03-26T01:07:52.444Z,-81
2023-03-26T01:09:01.296Z,-79
2023-03-26T01:10:04.204Z,-80
2023-03-26T01:11:17.449Z,-81
2023-03-26T01:12:25.173Z,-81
2023-03-26T01:13:34.501Z,-81
2023-03-26T01:14:37.458Z,-81
2023-03-26T01:15:40.569Z,-80
2023-03-26T01:16:47.368Z,-80
2023-03-26T01:17:53.264Z,-80
2023-03-26T01:19:06.481Z,-80
2023-03-26T01:20:20.571Z,-81
2023-03-26T01:21:29.793Z,-81
2023-03-26T01:22:32.875Z,-80
2023-03-26T01:23:59.516Z,-81
2023-03-26T01:25:02.366Z,-80
2023-03-26T01:26:37.791Z,-81
2023-03-26T01:27:47.965Z,-80
2023-03-26T01:29:02.527Z,-81
2023-03-26T01:30:25.582Z,-81
2023-03-26T01:31:38.447Z,-81
2023-03-26T01:33:03.595Z,-81
2023-03-26T01:34:21.514Z,-81
2023-03-26T01:35:36.134Z,-80
2023-03-26T01:36:58.959Z,-80
2023-03-26T01:38:11.772Z,-81
2023-03-26T01:39:57.520Z,-81
2023-03-26T01:41:16.615Z,-81
2023-03-26T01:42:32.160Z,-81
2023-03-26T01:43:57.436Z,-81
2023-03-26T01:45:48.582Z,-81
2023-03-26T01:46:53.422Z,-81
2023-03-26T01:47:57.420Z,-81
2023-03-26T01:49:00.262Z,-81
2023-03-26T01:50:03.154Z,-81
2023-03-26T01:51:13.509Z,-81
2023-03-26T01:52:21.759Z,-81
2023-03-26T01:53:24.809Z,-81
2023-03-26T01:54:31.572Z,-81
2023-03-26T01:56:03.524Z,-80
2023-03-26T01:57:25.839Z,-81
2023-03-26T01:58:53.103Z,-81
2023-03-26T02:00:14.234Z,-81
2023-03-26T02:01:24.706Z,-81
2023-03-26T02:02:39.974Z,-81
2023-03-26T02:03:50.658Z,-81
2023-03-26T02:04:59.068Z,-81
2023-03-26T02:06:48.682Z,-80
2023-03-26T02:08:13.236Z,-81
2023-03-26T02:09:23.673Z,-81
2023-03-26T02:10:32.056Z,-81
2023-03-26T02:11:36.719Z,-80
2023-03-26T02:12:46.701Z,-81
2023-03-26T02:13:49.793Z,-81
2023-03-26T02:14:52.968Z,-81
2023-03-26T02:16:07.740Z,-80
2023-03-26T02:17:12.207Z,-81
2023-03-26T02:18:21.684Z,-81
2023-03-26T02:19:25.900Z,-81
2023-03-26T02:20:31.970Z,-81
2023-03-26T02:21:35.277Z,-81
2023-03-26T02:22:42.283Z,-80
2023-03-26T02:23:54.676Z,-81
2023-03-26T02:24:57.584Z,-81
2023-03-26T02:26:00.412Z,-81
2023-03-26T02:27:03.529Z,-82
2023-03-26T02:28:06.772Z,-81
2023-03-26T02:29:16.695Z,-81
2023-03-26T02:30:28.342Z,-81
2023-03-26T02:31:31.394Z,-81
2023-03-26T02:32:34.291Z,-81
2023-03-26T02:33:37.201Z,-81
2023-03-26T02:34:47.721Z,-80
2023-03-26T02:35:50.744Z,-81
2023-03-26T02:36:53.661Z,-81
2023-03-26T02:37:56.552Z,-81
2023-03-26T02:38:59.389Z,-81
2023-03-26T02:40:09.868Z,-80
2023-03-26T02:41:12.744Z,-81
2023-03-26T02:42:17.421Z,-81
2023-03-26T02:43:20.339Z,-81
2023-03-26T02:44:23.236Z,-81
2023-03-26T02:45:38.804Z,-80
2023-03-26T02:46:41.725Z,-82
2023-03-26T02:47:44.758Z,-81
2023-03-26T02:48:47.590Z,-82
2023-03-26T02:49:50.472Z,-81
2023-03-26T02:51:01.762Z,-81
2023-03-26T02:52:07.630Z,-81
2023-03-26T02:53:11.063Z,-81
2023-03-26T02:54:13.932Z,-81
2023-03-26T02:55:17.371Z,-82
2023-03-26T02:56:26.744Z,-82
2023-03-26T02:57:30.015Z,-82
2023-03-26T02:58:33.482Z,-81
2023-03-26T02:59:36.301Z,-82
2023-03-26T03:00:39.698Z,-81
2023-03-26T03:01:51.780Z,-81
2023-03-26T03:02:55.456Z,-81
2023-03-26T03:03:58.540Z,-81
2023-03-26T03:05:02.739Z,-81
2023-03-26T03:06:05.896Z,-81
2023-03-26T03:07:15.802Z,-81
2023-03-26T03:08:19.904Z,-82
2023-03-26T03:09:22.734Z,-81
2023-03-26T03:10:29.956Z,-81
2023-03-26T03:11:32.875Z,-81
2023-03-26T03:12:42.767Z,-82
2023-03-26T03:13:46.608Z,-82
2023-03-26T03:14:49.558Z,-82
2023-03-26T03:15:52.643Z,-82
2023-03-26T03:16:55.630Z,-82
2023-03-26T03:18:04.816Z,-82
2023-03-26T03:19:07.843Z,-81
2023-03-26T03:20:10.996Z,-81
2023-03-26T03:21:13.797Z,-82
2023-03-26T03:22:16.803Z,-82
2023-03-26T03:23:25.840Z,-81
2023-03-26T03:24:28.680Z,-82
2023-03-26T03:25:31.547Z,-82
2023-03-26T03:26:35.406Z,-81
2023-03-26T03:27:40.514Z,-81
2023-03-26T03:28:49.853Z,-80
2023-03-26T03:29:54.918Z,-81
2023-03-26T03:30:58.795Z,-81
2023-03-26T03:32:01.730Z,-80
2023-03-26T03:33:04.777Z,-80
2023-03-26T03:34:13.814Z,-81
2023-03-26T03:35:17.032Z,-80
2023-03-26T03:36:25.469Z,-81
2023-03-26T03:37:28.591Z,-81
2023-03-26T03:38:31.620Z,-81
2023-03-26T03:39:40.859Z,-81
2023-03-26T03:40:44.538Z,-81
2023-03-26T03:41:47.370Z,-81
2023-03-26T03:42:50.252Z,-81
2023-03-26T03:43:53.254Z,-81
2023-03-26T03:45:02.863Z,-81
2023-03-26T03:46:12.033Z,-81
2023-03-26T03:47:21.657Z,-81
2023-03-26T03:48:24.565Z,-81
2023-03-26T03:49:27.413Z,-81
2023-03-26T03:50:36.874Z,-81
2023-03-26T03:51:39.689Z,-81
2023-03-26T03:52:42.541Z,-81
2023-03-26T03:53:47.535Z,-81
2023-03-26T03:54:56.874Z,-81
2023-03-26T03:55:59.923Z,-81
2023-03-26T03:57:03.393Z,-81
2023-03-26T03:58:07.366Z,-81
2023-03-26T03:59:10.233Z,-82
2023-03-26T04:00:21.166Z,-81
2023-03-26T04:01:24.796Z,-82
2023-03-26T04:02:31.573Z,-82
2023-03-26T04:03:40.089Z,-82
2023-03-26T04:04:43.275Z,-82
2023-03-26T04:06:02.904Z,-81
2023-03-26T04:07:06.810Z,-82
2023-03-26T04:08:09.586Z,-81
2023-03-26T04:09:12.425Z,-82
2023-03-26T04:10:16.942Z,-82
2023-03-26T04:11:25.909Z,-82
2023-03-26T04:12:29.657Z,-81
2023-03-26T04:13:32.669Z,-80
2023-03-26T04:14:35.488Z,-80
2023-03-26T04:15:38.545Z,-82
2023-03-26T04:16:47.913Z,-80
2023-03-26T04:17:50.805Z,-81
2023-03-26T04:18:53.663Z,-81
2023-03-26T04:19:56.501Z,-81
2023-03-26T04:21:03.692Z,-81
2023-03-26T04:22:12.913Z,-81
2023-03-26T04:23:19.292Z,-81
2023-03-26T04:24:23.687Z,-81
2023-03-26T04:25:31.613Z,-81
2023-03-26T04:26:34.582Z,-81
2023-03-26T04:27:44.948Z,-82
2023-03-26T04:28:56.646Z,-81
2023-03-26T04:30:02.916Z,-81
2023-03-26T04:31:06.097Z,-81
2023-03-26T04:32:15.587Z,-81
2023-03-26T04:33:24.986Z,-81
2023-03-26T04:34:27.916Z,-81
2023-03-26T04:35:37.427Z,-81
2023-03-26T04:36:42.012Z,-81
2023-03-26T04:37:53.984Z,-81
2023-03-26T04:38:59.606Z,-81
2023-03-26T04:40:10.704Z,-81
2023-03-26T04:41:20.956Z,-81
2023-03-26T04:42:24.328Z,-80
2023-03-26T04:43:27.968Z,-78
2023-03-26T04:44:31.678Z,-80
2023-03-26T04:45:41.110Z,-81
2023-03-26T04:46:52.052Z,-80
2023-03-26T04:47:54.980Z,-81
2023-03-26T04:48:58.096Z,-81
2023-03-26T04:50:00.921Z,-80
2023-03-26T04:51:03.919Z,-81
2023-03-26T04:52:13.025Z,-81
2023-03-26T04:53:18.960Z,-81
2023-03-26T04:54:25.650Z,-81
2023-03-26T04:55:38.782Z,-81
2023-03-26T04:56:44.640Z,-81
2023-03-26T04:58:01.016Z,-81
2023-03-26T04:59:04.547Z,-81
2023-03-26T05:00:16.296Z,-81
2023-03-26T05:01:19.210Z,-81
2023-03-26T05:02:29.018Z,-81
2023-03-26T05:03:33.701Z,-81
2023-03-26T05:04:38.075Z,-81
2023-03-26T05:05:42.133Z,-80
2023-03-26T05:06:45.130Z,-80
2023-03-26T05:07:54.066Z,-81
2023-03-26T05:08:57.140Z,-81
2023-03-26T05:10:00.026Z,-81
2023-03-26T05:11:02.928Z,-80
2023-03-26T05:12:06.020Z,-81
2023-03-26T05:13:15.015Z,-82
2023-03-26T05:14:18.624Z,-82
2023-03-26T05:15:21.575Z,-81
2023-03-26T05:16:25.322Z,-81
2023-03-26T05:17:32.198Z,-82
2023-03-26T05:18:42.087Z,-83
2023-03-26T05:19:44.918Z,-80
2023-03-26T05:20:47.858Z,-80
2023-03-26T05:21:50.703Z,-80
2023-03-26T05:22:53.927Z,-80
2023-03-26T05:24:03.049Z,-80
2023-03-26T05:25:06.505Z,-81
2023-03-26T05:26:10.860Z,-81
2023-03-26T05:27:18.343Z,-81
2023-03-26T05:28:25.509Z,-80
2023-03-26T05:29:35.031Z,-81
2023-03-26T05:30:38.065Z,-80
2023-03-26T05:31:40.867Z,-80
2023-03-26T05:32:44.463Z,-81
2023-03-26T05:33:47.852Z,-81
2023-03-26T05:34:57.058Z,-81
2023-03-26T05:36:16.567Z,-80
2023-03-26T05:37:21.208Z,-81
2023-03-26T05:38:24.515Z,-81
2023-03-26T05:39:35.096Z,-81
2023-03-26T05:40:38.052Z,-81
2023-03-26T05:41:41.175Z,-81
2023-03-26T05:42:51.081Z,-81
2023-03-26T05:43:53.958Z,-81
2023-03-26T05:45:17.139Z,-80
2023-03-26T05:46:21.653Z,-81
2023-03-26T05:47:24.547Z,-80
2023-03-26T05:48:34.145Z,-82
2023-03-26T05:49:37.591Z,-82
2023-03-26T05:50:40.461Z,-81
2023-03-26T05:51:43.299Z,-81
2023-03-26T05:52:46.156Z,-82
2023-03-26T05:53:55.194Z,-82
2023-03-26T05:54:58.034Z,-81
2023-03-26T05:56:03.706Z,-81
2023-03-26T05:57:06.541Z,-82
2023-03-26T05:58:09.368Z,-82
2023-03-26T05:59:19.233Z,-82
2023-03-26T06:00:23.004Z,-82
2023-03-26T06:01:26.866Z,-82
2023-03-26T06:02:30.714Z,-82
2023-03-26T06:03:35.011Z,-82
2023-03-26T06:04:48.313Z,-81
2023-03-26T06:05:51.298Z,-82
2023-03-26T06:06:55.316Z,-81
2023-03-26T06:07:58.184Z,-80
2023-03-26T06:09:08.231Z,-80
2023-03-26T06:10:11.249Z,-81
2023-03-26T06:11:21.467Z,-81
2023-03-26T06:12:24.344Z,-80
2023-03-26T06:13:27.380Z,-81
2023-03-26T06:14:36.236Z,-81
2023-03-26T06:15:39.283Z,-80
2023-03-26T06:16:42.149Z,-80
2023-03-26T06:17:45.073Z,-80
2023-03-26T06:18:48.335Z,-80
2023-03-26T06:21:09.461Z,-81
2023-03-26T06:22:12.973Z,-81
2023-03-26T06:23:15.845Z,-81
2023-03-26T06:24:20.224Z,-81
2023-03-26T06:25:29.252Z,-81
2023-03-26T06:26:32.264Z,-81
2023-03-26T06:27:35.096Z,-81
2023-03-26T06:28:37.902Z,-81
2023-03-26T06:29:40.725Z,-82
2023-03-26T06:30:50.288Z,-80
2023-03-26T06:31:53.184Z,-79
2023-03-26T06:32:56.071Z,-81
2023-03-26T06:33:58.938Z,-81
2023-03-26T06:35:01.956Z,-82
2023-03-26T06:36:11.333Z,-81
2023-03-26T06:37:14.196Z,-81
2023-03-26T06:38:17.056Z,-81
2023-03-26T06:39:21.284Z,-81
2023-03-26T06:40:24.710Z,-81
2023-03-26T06:41:34.274Z,-81
2023-03-26T06:43:09.669Z,-81
2023-03-26T06:43:59.869Z,-81
2023-03-26T06:45:23.308Z,-80
2023-03-26T06:46:33.344Z,-81
2023-03-26T06:47:36.300Z,-80
2023-03-26T06:48:39.815Z,-82
2023-03-26T06:49:44.920Z,-81
2023-03-26T06:50:48.327Z,-81
2023-03-26T06:51:58.312Z,-82
2023-03-26T06:53:02.214Z,-81
2023-03-26T06:54:05.169Z,-81
2023-03-26T06:55:09.983Z,-81
2023-03-26T06:56:12.813Z,-81
2023-03-26T06:57:22.317Z,-81
2023-03-26T06:58:31.310Z,-81
2023-03-26T06:59:34.124Z,-82
2023-03-26T07:00:36.990Z,-80
2023-03-26T07:01:40.129Z,-80
2023-03-26T07:02:43.053Z,-80
2023-03-26T07:03:52.385Z,-80
2023-03-26T07:04:55.334Z,-81
2023-03-26T07:05:58.333Z,-81
2023-03-26T07:07:01.179Z,-81
2023-03-26T07:08:04.355Z,-81
2023-03-26T07:09:14.374Z,-81
2023-03-26T07:10:17.763Z,-81
2023-03-26T07:11:22.014Z,-81
2023-03-26T07:12:24.831Z,-81
2023-03-26T07:13:27.668Z,-81
2023-03-26T07:14:38.329Z,-81
2023-03-26T07:15:41.211Z,-81
2023-03-26T07:16:44.114Z,-82
2023-03-26T07:17:47.014Z,-82
2023-03-26T07:18:49.928Z,-80
2023-03-26T07:20:01.345Z,-81
2023-03-26T07:21:04.581Z,-81
2023-03-26T07:22:07.703Z,-81
2023-03-26T07:23:12.988Z,-81
2023-03-26T07:24:16.280Z,-81
2023-03-26T07:25:26.384Z,-81
2023-03-26T07:27:09.541Z,-81
2023-03-26T07:28:38.017Z,-80
2023-03-26T07:29:48.967Z,-79
2023-03-26T07:31:11.419Z,-80
2023-03-26T07:32:35.408Z,-81
2023-03-26T07:34:05.228Z,-81
2023-03-26T07:35:36.444Z,-81
2023-03-26T07:36:46.664Z,-81
2023-03-26T07:38:05.935Z,-81
2023-03-26T07:39:28.026Z,-81
2023-03-26T07:41:20.433Z,-81
2023-03-26T07:42:26.289Z,-80
2023-03-26T07:43:59.649Z,-80
2023-03-26T07:45:58.514Z,-81
2023-03-26T07:47:06.151Z,-81
2023-03-26T07:48:21.486Z,-80
2023-03-26T07:49:24.692Z,-81
2023-03-26T07:50:27.986Z,-80
2023-03-26T07:51:37.537Z,-80
2023-03-26T07:52:40.697Z,-80
2023-03-26T07:53:43.816Z,-80
2023-03-26T07:54:49.761Z,-81
2023-03-26T07:56:35.643Z,-80
2023-03-26T07:57:46.675Z,-81
2023-03-26T07:59:27.771Z,-81
2023-03-26T08:00:42.805Z,-81
2023-03-26T08:02:29.591Z,-81
2023-03-26T08:03:47.910Z,-80
2023-03-26T08:05:27.433Z,-81
2023-03-26T08:06:45.551Z,-81
2023-03-26T08:08:15.037Z,-81
2023-03-26T08:10:02.387Z,-81
2023-03-26T08:11:19.154Z,-81
2023-03-26T08:12:47.541Z,-81
2023-03-26T08:13:58.353Z,-81
2023-03-26T08:15:32.098Z,-81
2023-03-26T08:16:55.821Z,-81
2023-03-26T08:18:08.741Z,-80
2023-03-26T08:19:32.094Z,-81
2023-03-26T08:20:45.662Z,-82
2023-03-26T08:21:56.828Z,-80
2023-03-26T08:23:20.560Z,-81
2023-03-26T08:24:34.836Z,-82
2023-03-26T08:25:51.118Z,-82
2023-03-26T08:27:03.880Z,-82
2023-03-26T08:28:24.581Z,-82
2023-03-26T08:29:43.611Z,-82
2023-03-26T08:30:48.210Z,-82
2023-03-26T08:31:51.966Z,-82
2023-03-26T08:33:21.886Z,-82
2023-03-26T08:34:31.729Z,-82
2023-03-26T08:35:36.412Z,-82
2023-03-26T08:36:39.455Z,-83
2023-03-26T08:37:42.509Z,-81
2023-03-26T08:38:46.874Z,-83
2023-03-26T08:39:56.695Z,-83
2023-03-26T08:41:18.330Z,-82
2023-03-26T08:42:23.980Z,-82
2023-03-26T08:43:26.793Z,-81
2023-03-26T08:45:03.728Z,-80
2023-03-26T08:46:29.804Z,-81
2023-03-26T08:47:50.966Z,-80
2023-03-26T08:49:12.237Z,-80
2023-03-26T08:50:47.744Z,-81
2023-03-26T08:51:56.703Z,-81
2023-03-26T08:53:27.425Z,-80
2023-03-26T08:54:55.606Z,-81
2023-03-26T08:56:38.780Z,-81
2023-03-26T08:58:05.961Z,-81
2023-03-26T08:59:27.422Z,-81
2023-03-26T09:00:45.784Z,-81
2023-03-26T09:02:22.636Z,-81
2023-03-26T09:03:44.830Z,-82
2023-03-26T09:04:59.606Z,-82
2023-03-26T09:06:42.775Z,-82
2023-03-26T09:08:10.087Z,-82
2023-03-26T09:09:34.577Z,-82
2023-03-26T09:11:04.901Z,-81
2023-03-26T09:12:26.786Z,-81
2023-03-26T09:14:06.896Z,-80
2023-03-26T09:15:24.641Z,-81
2023-03-26T09:17:11.797Z,-81
2023-03-26T09:18:44.636Z,-81
2023-03-26T09:20:24.381Z,-81
2023-03-26T09:21:45.956Z,-81
2023-03-26T09:23:15.038Z,-81
2023-03-26T09:24:55.568Z,-81
2023-03-26T09:26:20.145Z,-81
2023-03-26T09:27:35.647Z,-81
2023-03-26T09:29:06.801Z,-81
2023-03-26T09:30:42.559Z,-81
2023-03-26T09:32:03.779Z,-81
2023-03-26T09:33:27.828Z,-80
2023-03-26T09:34:40.888Z,-81
2023-03-26T09:35:53.438Z,-81
2023-03-26T09:37:14.633Z,-81
2023-03-26T09:38:49.818Z,-82
2023-03-26T09:40:06.395Z,-81
2023-03-26T09:41:33.521Z,-81
2023-03-26T09:42:42.546Z,-81
2023-03-26T09:43:54.908Z,-81
2023-03-26T09:45:18.654Z,-81
2023-03-26T09:46:59.872Z,-81
2023-03-26T09:49:02.810Z,-81
2023-03-26T09:50:44.875Z,-81
2023-03-26T09:52:09.206Z,-81
2023-03-26T09:53:27.759Z,-79
2023-03-26T09:54:36.643Z,-82
2023-03-26T09:55:51.915Z,-81
2023-03-26T09:57:30.450Z,-80
2023-03-26T09:58:45.229Z,-81
2023-03-26T10:00:15.083Z,-81
2023-03-26T10:01:24.976Z,-81
2023-03-26T10:03:08.808Z,-80
2023-03-26T10:04:30.385Z,-80
2023-03-26T10:05:53.965Z,-81
2023-03-26T10:07:16.930Z,-80
2023-03-26T10:08:32.041Z,-81
2023-03-26T10:10:05.517Z,-81
2023-03-26T10:11:14.114Z,-81
2023-03-26T10:12:35.934Z,-81
2023-03-26T10:14:06.513Z,-80
2023-03-26T10:15:36.992Z,-80
2023-03-26T10:16:49.654Z,-80
2023-03-26T10:18:27.614Z,-81
2023-03-26T10:20:12.858Z,-80
2023-03-26T10:21:30.771Z,-81
2023-03-26T10:22:57.928Z,-81
2023-03-26T10:24:50.476Z,-82
2023-03-26T10:26:17.233Z,-82
2023-03-26T10:27:40.967Z,-81
2023-03-26T10:29:16.160Z,-81
2023-03-26T10:30:46.621Z,-82
2023-03-26T10:32:13.890Z,-81
2023-03-26T10:33:40.962Z,-82
2023-03-26T10:35:07.767Z,-83
2023-03-26T10:36:16.133Z,-82
2023-03-26T10:37:18.971Z,-80
2023-03-26T10:38:51.985Z,-83
2023-03-26T10:40:04.012Z,-82
2023-03-26T10:41:25.005Z,-83
2023-03-26T10:42:51.545Z,-83
2023-03-26T10:44:18.977Z,-81
2023-03-26T10:46:03.488Z,-82
2023-03-26T10:47:33.018Z,-82
2023-03-26T10:49:21.982Z,-82
2023-03-26T10:50:55.667Z,-81
2023-03-26T10:52:03.462Z,-83
2023-03-26T10:53:15.348Z,-83
2023-03-26T10:54:48.978Z,-80
2023-03-26T10:56:03.040Z,-89
2023-03-26T10:57:21.088Z,-89
2023-03-26T10:58:27.611Z,-89
2023-03-26T10:59:31.881Z,-89
2023-03-26T11:00:48.990Z,-90
2023-03-26T11:02:04.475Z,-90
2023-03-26T11:03:30.534Z,-89
2023-03-26T11:04:36.279Z,-92
2023-03-26T11:06:05.076Z,-91
2023-03-26T11:07:46.833Z,-90
2023-03-26T11:08:59.746Z,-90
2023-03-26T11:10:51.070Z,-88
2023-03-26T11:11:56.982Z,-89
2023-03-26T11:13:15.344Z,-89
2023-03-26T11:14:35.217Z,-89
2023-03-26T11:15:53.181Z,-89
2023-03-26T11:17:40.734Z,-90
2023-03-26T11:19:21.133Z,-89
2023-03-26T11:20:33.527Z,-89
2023-03-26T11:22:16.108Z,-89
2023-03-26T11:23:37.456Z,-89
2023-03-26T11:25:05.737Z,-90
2023-03-26T11:26:23.694Z,-89
2023-03-26T11:27:53.701Z,-90
2023-03-26T11:29:31.576Z,-88
2023-03-26T11:31:01.992Z,-89
2023-03-26T11:32:20.146Z,-89
2023-03-26T11:33:38.202Z,-87
2023-03-26T11:35:40.498Z,-88
2023-03-26T11:36:54.699Z,-92
2023-03-26T11:38:11.148Z,-90
2023-03-26T11:39:22.297Z,-90
2023-03-26T11:40:32.098Z,-85
2023-03-26T11:41:36.936Z,-91
2023-03-26T11:44:23.170Z,-90
2023-03-26T11:45:31.079Z,-89
2023-03-26T11:46:45.166Z,-90
2023-03-26T11:47:53.192Z,-90
2023-03-26T11:49:14.144Z,-90
2023-03-26T11:50:23.205Z,-89
2023-03-26T11:51:32.678Z,-92
2023-03-26T11:52:35.537Z,-88
2023-03-26T11:53:55.219Z,-88
2023-03-26T11:54:59.760Z,-91
2023-03-26T11:56:07.373Z,-91
2023-03-26T11:57:19.739Z,-91
2023-03-26T11:58:26.220Z,-91
2023-03-26T12:00:15.200Z,-91
2023-03-26T12:01:31.337Z,-90
2023-03-26T12:02:42.179Z,-90
2023-03-26T12:03:56.959Z,-89
2023-03-26T12:05:26.208Z,-90
2023-03-26T12:06:30.240Z,-90
2023-03-26T12:07:35.864Z,-89
2023-03-26T12:08:42.854Z,-91
2023-03-26T12:10:18.386Z,-89
2023-03-26T12:11:29.378Z,-89
2023-03-26T12:12:40.070Z,-89
2023-03-26T12:13:47.177Z,-88
2023-03-26T12:14:50.236Z,-89
2023-03-26T12:16:05.268Z,-90
2023-03-26T12:17:32.129Z,-89
2023-03-26T12:18:35.621Z,-88
2023-03-26T12:19:47.517Z,-88
2023-03-26T12:20:57.255Z,-88
2023-03-26T12:22:00.105Z,-89
2023-03-26T12:23:06.324Z,-89
2023-03-26T12:24:30.954Z,-90
2023-03-26T12:25:46.282Z,-88
2023-03-26T12:26:51.504Z,-90
2023-03-26T12:28:14.724Z,-90
2023-03-26T12:29:20.030Z,-89
2023-03-26T12:30:24.620Z,-89
2023-03-26T12:31:34.369Z,-90
2023-03-26T12:32:46.748Z,-88
2023-03-26T12:34:08.870Z,-89
2023-03-26T12:35:28.440Z,-88
2023-03-26T12:36:41.272Z,-88
2023-03-26T12:37:45.805Z,-89
2023-03-26T12:39:43.646Z,-88
2023-03-26T12:40:23.427Z,-90
2023-03-26T12:43:40.240Z,-89
2023-03-26T12:44:54.131Z,-89
2023-03-26T12:44:58.821Z,-88
2023-03-26T12:47:54.921Z,-86
2023-03-26T12:48:00.711Z,-89
2023-03-26T12:49:09.983Z,-89
2023-03-26T12:50:17.119Z,-89
2023-03-26T12:51:45.720Z,-89
2023-03-26T12:53:10.449Z,-89
2023-03-26T12:54:19.467Z,-89
2023-03-26T12:55:31.386Z,-90
2023-03-26T12:57:12.217Z,-90
2023-03-26T12:58:55.484Z,-89
2023-03-26T13:00:07.848Z,-91
2023-03-26T13:01:27.636Z,-91
2023-03-26T13:02:48.476Z,-90
2023-03-26T13:04:31.434Z,-91
2023-03-26T13:05:41.175Z,-88
2023-03-26T13:07:00.328Z,-90
2023-03-26T13:08:41.484Z,-91
2023-03-26T13:09:51.736Z,-88
2023-03-26T13:11:40.003Z,-89
2023-03-26T13:12:47.675Z,-89
2023-03-26T13:14:22.527Z,-89
2023-03-26T13:15:36.935Z,-89
2023-03-26T13:16:50.586Z,-90
2023-03-26T13:18:31.556Z,-90
2023-03-26T13:19:48.471Z,-90
2023-03-26T13:21:09.475Z,-90
2023-03-26T13:22:38.496Z,-89
2023-03-26T13:24:08.312Z,-89
2023-03-26T13:25:32.509Z,-90
2023-03-26T13:26:56.655Z,-89
2023-03-26T13:28:16.641Z,-90
2023-03-26T13:29:45.164Z,-90
2023-03-26T13:31:12.623Z,-89
2023-03-26T13:32:28.234Z,-90
2023-03-26T13:33:49.781Z,-91
2023-03-26T13:35:01.505Z,-90
2023-03-26T13:36:48.585Z,-89
2023-03-26T13:38:02.344Z,-90
2023-03-26T13:39:09.308Z,-89
2023-03-26T13:40:18.309Z,-90
2023-03-26T13:42:00.548Z,-90
2023-03-26T13:43:09.429Z,-89
2023-03-26T13:44:46.236Z,-89
2023-03-26T13:46:19.593Z,-90
2023-03-26T13:47:34.691Z,-89
2023-03-26T13:48:49.284Z,-89
2023-03-26T13:50:07.505Z,-90
2023-03-26T13:51:58.527Z,-89
2023-03-26T13:53:07.759Z,-89
2023-03-26T13:54:18.940Z,-88
2023-03-26T13:55:21.857Z,-90
2023-03-26T13:56:38.688Z,-89
2023-03-26T13:57:51.545Z,-89
2023-03-26T13:59:01.689Z,-89
2023-03-26T14:00:18.533Z,-88
2023-03-26T14:01:51.617Z,-89
2023-03-26T14:03:09.414Z,-89
2023-03-26T14:04:34.599Z,-89
2023-03-26T14:05:46.846Z,-90
2023-03-26T14:07:20.597Z,-90
2023-03-26T14:08:32.730Z,-89
2023-03-26T14:09:42.160Z,-92
2023-03-26T14:11:12.565Z,-91
2023-03-26T14:12:30.634Z,-93
2023-03-26T14:14:07.483Z,-91
2023-03-26T14:15:20.835Z,-93
2023-03-26T14:16:37.694Z,-92
2023-03-26T14:18:04.681Z,-93
2023-03-26T14:19:20.168Z,-93
2023-03-26T14:20:29.441Z,-92
2023-03-26T14:21:53.472Z,-92
2023-03-26T14:23:02.615Z,-93
2023-03-26T14:24:36.768Z,-93
2023-03-26T14:26:17.055Z,-92
2023-03-26T14:27:23.334Z,-92
2023-03-26T14:28:41.625Z,-92
2023-03-26T14:30:05.663Z,-91
2023-03-26T14:31:24.407Z,-92
2023-03-26T14:32:48.720Z,-92
2023-03-26T14:34:06.207Z,-92
2023-03-26T14:35:27.443Z,-92
2023-03-26T14:36:48.063Z,-92
2023-03-26T14:38:37.664Z,-92
2023-03-26T14:40:19.475Z,-92
2023-03-26T14:41:57.672Z,-93
2023-03-26T14:43:36.698Z,-91
2023-03-26T14:44:57.714Z,-92
2023-03-26T14:46:17.068Z,-92
2023-03-26T14:47:26.589Z,-92
2023-03-26T14:48:35.378Z,-90
2023-03-26T14:50:03.672Z,-91
2023-03-26T14:51:10.221Z,-91
2023-03-26T14:52:28.615Z,-92
2023-03-26T14:53:36.194Z,-90
2023-03-26T14:54:44.105Z,-90
2023-03-26T14:56:02.793Z,-90
2023-03-26T14:57:23.959Z,-90
2023-03-26T14:58:54.441Z,-92
2023-03-26T15:00:40.791Z,-91
2023-03-26T15:02:11.268Z,-91
2023-03-26T15:03:14.188Z,-92
2023-03-26T15:04:28.758Z,-91
2023-03-26T15:05:34.295Z,-91
2023-03-26T15:06:58.780Z,-91
2023-03-26T15:08:17.849Z,-91
2023-03-26T15:09:32.910Z,-91
2023-03-26T15:11:18.821Z,-91
2023-03-26T15:12:53.134Z,-83
2023-03-26T15:14:32.957Z,-83
2023-03-26T15:15:38.645Z,-82
2023-03-26T15:17:16.828Z,-83
2023-03-26T15:18:56.820Z,-82
2023-03-26T15:20:36.188Z,-82
2023-03-26T15:22:26.139Z,-82
2023-03-26T15:23:58.729Z,-83
2023-03-26T15:25:10.281Z,-82
2023-03-26T15:26:38.370Z,-82
2023-03-26T15:28:22.852Z,-82
2023-03-26T15:29:49.901Z,-81
2023-03-26T15:31:12.487Z,-82
2023-03-26T15:32:31.496Z,-82
2023-03-26T15:33:51.847Z,-82
2023-03-26T15:35:16.487Z,-82
2023-03-26T15:36:29.498Z,-83
2023-03-26T15:38:06.582Z,-81
2023-03-26T15:39:39.857Z,-82
2023-03-26T15:40:48.726Z,-81
2023-03-26T15:42:24.641Z,-82
2023-03-26T15:44:24.098Z,-82
2023-03-26T15:45:46.489Z,-82
2023-03-26T15:47:05.953Z,-83
2023-03-26T15:48:15.219Z,-82
2023-03-26T15:49:29.882Z,-82
2023-03-26T15:50:57.023Z,-82
2023-03-26T15:52:00.056Z,-82
2023-03-26T15:53:03.424Z,-82
2023-03-26T15:54:06.545Z,-82
2023-03-26T15:55:24.876Z,-82
2023-03-26T15:57:09.152Z,-82
2023-03-26T15:59:13.072Z,-83
2023-03-26T16:00:36.923Z,-82
2023-03-26T16:01:52.871Z,-82
2023-03-26T16:03:40.952Z,-82
2023-03-26T16:05:04.962Z,-82
2023-03-26T16:06:42.831Z,-82
2023-03-26T16:08:04.329Z,-82
2023-03-26T16:09:48.935Z,-83
2023-03-26T16:11:03.951Z,-83
2023-03-26T16:12:13.115Z,-82
2023-03-26T16:13:41.055Z,-82
2023-03-26T16:14:48.940Z,-82
2023-03-26T16:16:05.965Z,-82
2023-03-26T16:17:18.731Z,-83
2023-03-26T16:18:42.495Z,-81
2023-03-26T16:20:01.030Z,-82
2023-03-26T16:21:31.552Z,-82
2023-03-26T16:22:43.335Z,-82
2023-03-26T16:23:50.377Z,-82
2023-03-26T16:25:27.365Z,-82
2023-03-26T16:26:59.150Z,-83
2023-03-26T16:28:07.918Z,-82
2023-03-26T16:29:37.051Z,-83
2023-03-26T16:30:40.490Z,-81
2023-03-26T16:32:17.181Z,-83
2023-03-26T16:33:22.466Z,-83
2023-03-26T16:34:38.237Z,-82
2023-03-26T16:36:03.342Z,-82
2023-03-26T16:37:44.147Z,-83
2023-03-26T16:39:18.155Z,-83
2023-03-26T16:40:22.101Z,-83
2023-03-26T16:41:28.216Z,-83
2023-03-26T16:42:43.418Z,-84
2023-03-26T16:43:59.134Z,-84
2023-03-26T16:45:15.035Z,-84
2023-03-26T16:46:17.896Z,-84
2023-03-26T16:47:38.622Z,-83
2023-03-26T16:49:09.220Z,-84
2023-03-26T16:50:27.389Z,-84
2023-03-26T16:52:21.135Z,-84
2023-03-26T16:54:00.966Z,-83
2023-03-26T16:55:22.215Z,-83
2023-03-26T16:56:52.727Z,-83
2023-03-26T16:58:32.840Z,-83
2023-03-26T17:00:07.656Z,-84
2023-03-26T17:01:54.226Z,-83
2023-03-26T17:03:05.524Z,-84
2023-03-26T17:04:18.391Z,-84
2023-03-26T17:05:50.194Z,-84
2023-03-26T17:07:02.853Z,-84
2023-03-26T17:08:36.235Z,-84
2023-03-26T17:09:46.277Z,-85
2023-03-26T17:11:26.211Z,-84
2023-03-26T17:12:34.702Z,-84
2023-03-26T17:13:47.253Z,-84